Terminal Aerodrome Forecast
Issued by NWS Billings, MT

Home | Current Version | Previous Version | Text Only | Print | Product List | Glossary On
Versions: 1 2 3 4 5 6 7 8 9 10 11 12
000
FTUS45 KBYZ 041738
TAFBIL
TAF
KBIL 041738Z 0418/0518 24012KT P6SM BKN050
     FM050000 29012KT P6SM -SHRASN OVC025
     FM050400 31010KT P6SM BKN070
     FM051400 33009KT P6SM VCSH BKN030=

USA.gov is the U.S. government's official web portal to all federal, state and local government web resources and services.